sensor_id;sensor_type;location;lat;lon;timestamp;temperature;humidity
52459;DHT22;38372;52.902;6.024;2023-04-24T00:00:34;10.60;99.90
52459;DHT22;38372;52.902;6.024;2023-04-24T00:03:01;10.50;99.90
52459;DHT22;38372;52.902;6.024;2023-04-24T00:05:28;10.40;99.90
52459;DHT22;38372;52.902;6.024;2023-04-24T00:07:54;10.40;99.90
52459;DHT22;38372;52.902;6.024;2023-04-24T00:10:20;10.40;99.90
52459;DHT22;38372;52.902;6.024;2023-04-24T00:12:47;10.40;99.90
52459;DHT22;38372;52.902;6.024;2023-04-24T00:15:13;10.40;99.90
52459;DHT22;38372;52.902;6.024;2023-04-24T00:17:38;10.30;99.90
52459;DHT22;38372;52.902;6.024;2023-04-24T00:20:05;10.30;99.90
52459;DHT22;38372;52.902;6.024;2023-04-24T00:22:32;10.30;99.90
52459;DHT22;38372;52.902;6.024;2023-04-24T00:24:58;10.30;99.90
52459;DHT22;38372;52.902;6.024;2023-04-24T00:27:24;10.20;99.90
52459;DHT22;38372;52.902;6.024;2023-04-24T00:29:51;10.20;99.90
52459;DHT22;38372;52.902;6.024;2023-04-24T00:32:16;10.20;99.90
52459;DHT22;38372;52.902;6.024;2023-04-24T00:34:43;10.20;99.90
52459;DHT22;38372;52.902;6.024;2023-04-24T00:37:08;10.20;99.90
52459;DHT22;38372;52.902;6.024;2023-04-24T00:39:34;10.20;99.90
52459;DHT22;38372;52.902;6.024;2023-04-24T00:42:00;10.20;99.90
52459;DHT22;38372;52.902;6.024;2023-04-24T00:44:27;10.20;99.90
52459;DHT22;38372;52.902;6.024;2023-04-24T00:46:54;10.20;99.90
52459;DHT22;38372;52.902;6.024;2023-04-24T00:49:22;10.20;99.90
52459;DHT22;38372;52.902;6.024;2023-04-24T00:51:48;10.10;99.90
52459;DHT22;38372;52.902;6.024;2023-04-24T00:54:15;10.10;99.90
52459;DHT22;38372;52.902;6.024;2023-04-24T00:56:42;10.10;99.90
52459;DHT22;38372;52.902;6.024;2023-04-24T00:59:09;10.10;99.90
52459;DHT22;38372;52.902;6.024;2023-04-24T01:01:35;10.10;99.90
52459;DHT22;38372;52.902;6.024;2023-04-24T01:04:01;10.10;99.90
52459;DHT22;38372;52.902;6.024;2023-04-24T01:06:28;10.10;99.90
52459;DHT22;38372;52.902;6.024;2023-04-24T01:08:57;10.10;99.90
52459;DHT22;38372;52.902;6.024;2023-04-24T01:11:24;10.00;99.90
52459;DHT22;38372;52.902;6.024;2023-04-24T01:13:51;10.10;99.90
52459;DHT22;38372;52.902;6.024;2023-04-24T01:16:17;10.10;99.90
52459;DHT22;38372;52.902;6.024;2023-04-24T01:18:43;10.00;99.90
52459;DHT22;38372;52.902;6.024;2023-04-24T01:21:13;10.10;99.90
52459;DHT22;38372;52.902;6.024;2023-04-24T01:23:39;10.00;99.90
52459;DHT22;38372;52.902;6.024;2023-04-24T01:26:05;10.10;99.90
52459;DHT22;38372;52.902;6.024;2023-04-24T01:28:31;10.10;99.90
52459;DHT22;38372;52.902;6.024;2023-04-24T01:30:57;10.10;99.90
52459;DHT22;38372;52.902;6.024;2023-04-24T01:33:23;10.10;99.90
52459;DHT22;38372;52.902;6.024;2023-04-24T01:35:49;10.10;99.90
52459;DHT22;38372;52.902;6.024;2023-04-24T01:38:15;10.10;99.90
52459;DHT22;38372;52.902;6.024;2023-04-24T01:40:41;10.10;99.90
52459;DHT22;38372;52.902;6.024;2023-04-24T01:43:07;10.10;99.90
52459;DHT22;38372;52.902;6.024;2023-04-24T01:45:33;10.10;99.90
52459;DHT22;38372;52.902;6.024;2023-04-24T01:48:00;10.10;99.90
52459;DHT22;38372;52.902;6.024;2023-04-24T01:50:26;10.10;99.90
52459;DHT22;38372;52.902;6.024;2023-04-24T01:52:52;10.10;99.90
52459;DHT22;38372;52.902;6.024;2023-04-24T01:55:17;10.10;99.90
52459;DHT22;38372;52.902;6.024;2023-04-24T01:57:43;10.10;99.90
52459;DHT22;38372;52.902;6.024;2023-04-24T02:00:09;10.10;99.90
52459;DHT22;38372;52.902;6.024;2023-04-24T02:02:37;10.10;99.90
52459;DHT22;38372;52.902;6.024;2023-04-24T02:05:06;10.10;99.90
52459;DHT22;38372;52.902;6.024;2023-04-24T02:07:32;10.10;99.90
52459;DHT22;38372;52.902;6.024;2023-04-24T02:09:58;10.10;99.90
52459;DHT22;38372;52.902;6.024;2023-04-24T02:12:24;10.10;99.90
52459;DHT22;38372;52.902;6.024;2023-04-24T02:14:50;10.10;99.90
52459;DHT22;38372;52.902;6.024;2023-04-24T02:17:16;10.10;99.90
52459;DHT22;38372;52.902;6.024;2023-04-24T02:19:42;10.10;99.90
52459;DHT22;38372;52.902;6.024;2023-04-24T02:22:08;10.10;99.90
52459;DHT22;38372;52.902;6.024;2023-04-24T02:24:33;10.10;99.90
52459;DHT22;38372;52.902;6.024;2023-04-24T02:26:59;10.10;99.90
52459;DHT22;38372;52.902;6.024;2023-04-24T02:29:25;10.10;99.90
52459;DHT22;38372;52.902;6.024;2023-04-24T02:31:51;10.10;99.90
52459;DHT22;38372;52.902;6.024;2023-04-24T02:34:17;10.20;99.90
52459;DHT22;38372;52.902;6.024;2023-04-24T02:36:42;10.20;99.90
52459;DHT22;38372;52.902;6.024;2023-04-24T02:39:08;10.20;99.90
52459;DHT22;38372;52.902;6.024;2023-04-24T02:41:34;10.20;99.90
52459;DHT22;38372;52.902;6.024;2023-04-24T02:43:59;10.20;99.90
52459;DHT22;38372;52.902;6.024;2023-04-24T02:46:25;10.20;99.90
52459;DHT22;38372;52.902;6.024;2023-04-24T02:48:51;10.20;99.90
52459;DHT22;38372;52.902;6.024;2023-04-24T02:51:17;10.10;99.90
52459;DHT22;38372;52.902;6.024;2023-04-24T02:53:43;10.10;99.90
52459;DHT22;38372;52.902;6.024;2023-04-24T02:56:08;10.10;99.90
52459;DHT22;38372;52.902;6.024;2023-04-24T02:58:37;10.10;99.90
52459;DHT22;38372;52.902;6.024;2023-04-24T03:01:03;10.10;99.90
52459;DHT22;38372;52.902;6.024;2023-04-24T03:03:29;10.10;99.90
52459;DHT22;38372;52.902;6.024;2023-04-24T03:05:55;10.10;99.90
52459;DHT22;38372;52.902;6.024;2023-04-24T03:08:22;10.10;99.90
52459;DHT22;38372;52.902;6.024;2023-04-24T03:10:48;10.10;99.90
52459;DHT22;38372;52.902;6.024;2023-04-24T03:13:16;10.10;99.90
52459;DHT22;38372;52.902;6.024;2023-04-24T03:15:42;10.10;99.90
52459;DHT22;38372;52.902;6.024;2023-04-24T03:18:08;10.10;99.90
52459;DHT22;38372;52.902;6.024;2023-04-24T03:20:33;10.10;99.90
52459;DHT22;38372;52.902;6.024;2023-04-24T03:22:59;10.10;99.90
52459;DHT22;38372;52.902;6.024;2023-04-24T03:25:25;10.10;99.90
52459;DHT22;38372;52.902;6.024;2023-04-24T03:27:51;10.10;99.90
52459;DHT22;38372;52.902;6.024;2023-04-24T03:30:17;10.10;99.90
52459;DHT22;38372;52.902;6.024;2023-04-24T03:32:42;10.00;99.90
52459;DHT22;38372;52.902;6.024;2023-04-24T03:35:08;10.10;99.90
52459;DHT22;38372;52.902;6.024;2023-04-24T03:37:34;10.10;99.90
52459;DHT22;38372;52.902;6.024;2023-04-24T03:40:01;10.10;99.90
52459;DHT22;38372;52.902;6.024;2023-04-24T03:42:27;10.10;99.90
52459;DHT22;38372;52.902;6.024;2023-04-24T03:44:52;10.10;99.90
52459;DHT22;38372;52.902;6.024;2023-04-24T03:47:18;10.10;99.90
52459;DHT22;38372;52.902;6.024;2023-04-24T03:49:44;10.10;99.90
52459;DHT22;38372;52.902;6.024;2023-04-24T03:52:10;10.20;99.90
52459;DHT22;38372;52.902;6.024;2023-04-24T03:54:35;10.20;99.90
52459;DHT22;38372;52.902;6.024;2023-04-24T03:57:01;10.20;99.90
52459;DHT22;38372;52.902;6.024;2023-04-24T03:59:27;10.20;99.90
52459;DHT22;38372;52.902;6.024;2023-04-24T04:01:53;10.20;99.90
52459;DHT22;38372;52.902;6.024;2023-04-24T04:04:18;10.20;99.90
52459;DHT22;38372;52.902;6.024;2023-04-24T04:06:44;10.20;99.90
52459;DHT22;38372;52.902;6.024;2023-04-24T04:09:11;10.20;99.90
52459;DHT22;38372;52.902;6.024;2023-04-24T04:11:37;10.20;99.90
52459;DHT22;38372;52.902;6.024;2023-04-24T04:14:03;10.10;99.90
52459;DHT22;38372;52.902;6.024;2023-04-24T04:16:29;10.20;99.90
52459;DHT22;38372;52.902;6.024;2023-04-24T04:18:55;10.10;99.90
52459;DHT22;38372;52.902;6.024;2023-04-24T04:21:21;10.10;99.90
52459;DHT22;38372;52.902;6.024;2023-04-24T04:23:47;10.10;99.90
52459;DHT22;38372;52.902;6.024;2023-04-24T04:26:13;10.10;99.90
52459;DHT22;38372;52.902;6.024;2023-04-24T04:28:39;10.10;99.90
52459;DHT22;38372;52.902;6.024;2023-04-24T04:31:05;10.10;99.90
52459;DHT22;38372;52.902;6.024;2023-04-24T04:33:33;10.00;99.90
52459;DHT22;38372;52.902;6.024;2023-04-24T04:35:59;10.00;99.90
52459;DHT22;38372;52.902;6.024;2023-04-24T04:38:25;10.00;99.90
52459;DHT22;38372;52.902;6.024;2023-04-24T04:40:55;9.90;99.90
52459;DHT22;38372;52.902;6.024;2023-04-24T04:43:25;9.90;99.90
52459;DHT22;38372;52.902;6.024;2023-04-24T04:45:52;9.90;99.90
52459;DHT22;38372;52.902;6.024;2023-04-24T04:48:18;9.90;99.90
52459;DHT22;38372;52.902;6.024;2023-04-24T04:50:44;9.90;99.90
52459;DHT22;38372;52.902;6.024;2023-04-24T04:53:10;9.90;99.90
52459;DHT22;38372;52.902;6.024;2023-04-24T04:55:37;9.90;99.90
52459;DHT22;38372;52.902;6.024;2023-04-24T04:58:03;9.90;99.90
52459;DHT22;38372;52.902;6.024;2023-04-24T05:00:28;9.90;99.90
52459;DHT22;38372;52.902;6.024;2023-04-24T05:02:59;9.90;99.90
52459;DHT22;38372;52.902;6.024;2023-04-24T05:05:25;9.80;99.90
52459;DHT22;38372;52.902;6.024;2023-04-24T05:07:51;9.90;99.90
52459;DHT22;38372;52.902;6.024;2023-04-24T05:10:17;9.90;99.90
52459;DHT22;38372;52.902;6.024;2023-04-24T05:12:43;9.80;99.90
52459;DHT22;38372;52.902;6.024;2023-04-24T05:15:09;9.80;99.90
52459;DHT22;38372;52.902;6.024;2023-04-24T05:17:35;9.80;99.90
52459;DHT22;38372;52.902;6.024;2023-04-24T05:20:02;9.80;99.90
52459;DHT22;38372;52.902;6.024;2023-04-24T05:22:31;9.80;99.90
52459;DHT22;38372;52.902;6.024;2023-04-24T05:24:56;9.80;99.90
52459;DHT22;38372;52.902;6.024;2023-04-24T05:27:23;9.80;99.90
52459;DHT22;38372;52.902;6.024;2023-04-24T05:29:48;9.80;99.90
52459;DHT22;38372;52.902;6.024;2023-04-24T05:32:14;9.80;99.90
52459;DHT22;38372;52.902;6.024;2023-04-24T05:34:40;9.70;99.90
52459;DHT22;38372;52.902;6.024;2023-04-24T05:37:05;9.70;99.90
52459;DHT22;38372;52.902;6.024;2023-04-24T05:39:34;9.70;99.90
52459;DHT22;38372;52.902;6.024;2023-04-24T05:42:00;9.70;99.90
52459;DHT22;38372;52.902;6.024;2023-04-24T05:44:27;9.70;99.90
52459;DHT22;38372;52.902;6.024;2023-04-24T05:46:53;9.70;99.90
52459;DHT22;38372;52.902;6.024;2023-04-24T05:49:20;9.70;99.90
52459;DHT22;38372;52.902;6.024;2023-04-24T05:51:46;9.80;99.90
52459;DHT22;38372;52.902;6.024;2023-04-24T05:54:12;9.80;99.90
52459;DHT22;38372;52.902;6.024;2023-04-24T05:56:38;9.70;99.90
52459;DHT22;38372;52.902;6.024;2023-04-24T05:59:04;9.70;99.90
52459;DHT22;38372;52.902;6.024;2023-04-24T06:01:30;9.70;99.90
52459;DHT22;38372;52.902;6.024;2023-04-24T06:03:57;9.80;99.90
52459;DHT22;38372;52.902;6.024;2023-04-24T06:06:23;9.70;99.90
52459;DHT22;38372;52.902;6.024;2023-04-24T06:08:49;9.70;99.90
52459;DHT22;38372;52.902;6.024;2023-04-24T06:11:15;9.70;99.90
52459;DHT22;38372;52.902;6.024;2023-04-24T06:13:41;9.70;99.90
52459;DHT22;38372;52.902;6.024;2023-04-24T06:16:07;9.70;99.90
52459;DHT22;38372;52.902;6.024;2023-04-24T06:18:33;9.70;99.90
52459;DHT22;38372;52.902;6.024;2023-04-24T06:20:59;9.70;99.90
52459;DHT22;38372;52.902;6.024;2023-04-24T06:23:24;9.70;99.90
52459;DHT22;38372;52.902;6.024;2023-04-24T06:25:51;9.70;99.90
52459;DHT22;38372;52.902;6.024;2023-04-24T06:28:18;9.70;99.90
52459;DHT22;38372;52.902;6.024;2023-04-24T06:30:43;9.70;99.90
52459;DHT22;38372;52.902;6.024;2023-04-24T06:33:09;9.70;99.90
52459;DHT22;38372;52.902;6.024;2023-04-24T06:35:36;9.80;99.90
52459;DHT22;38372;52.902;6.024;2023-04-24T06:38:03;9.80;99.90
52459;DHT22;38372;52.902;6.024;2023-04-24T06:40:29;9.80;99.90
52459;DHT22;38372;52.902;6.024;2023-04-24T06:42:55;9.80;99.90
52459;DHT22;38372;52.902;6.024;2023-04-24T06:45:21;9.80;99.90
52459;DHT22;38372;52.902;6.024;2023-04-24T06:47:47;9.80;99.90
52459;DHT22;38372;52.902;6.024;2023-04-24T06:50:13;9.80;99.90
52459;DHT22;38372;52.902;6.024;2023-04-24T06:52:38;9.80;99.90
52459;DHT22;38372;52.902;6.024;2023-04-24T06:55:05;9.80;99.90
52459;DHT22;38372;52.902;6.024;2023-04-24T06:57:31;9.70;99.90
52459;DHT22;38372;52.902;6.024;2023-04-24T06:59:57;9.80;99.90
52459;DHT22;38372;52.902;6.024;2023-04-24T07:02:23;9.80;99.90
52459;DHT22;38372;52.902;6.024;2023-04-24T07:04:49;9.70;99.90
52459;DHT22;38372;52.902;6.024;2023-04-24T07:07:18;9.70;99.90
52459;DHT22;38372;52.902;6.024;2023-04-24T07:09:43;9.70;99.90
52459;DHT22;38372;52.902;6.024;2023-04-24T07:12:11;9.70;99.90
52459;DHT22;38372;52.902;6.024;2023-04-24T07:14:38;9.70;99.90
52459;DHT22;38372;52.902;6.024;2023-04-24T07:17:04;9.60;99.90
52459;DHT22;38372;52.902;6.024;2023-04-24T07:19:31;9.60;99.90
52459;DHT22;38372;52.902;6.024;2023-04-24T07:21:56;9.60;99.90
52459;DHT22;38372;52.902;6.024;2023-04-24T07:24:24;9.50;99.90
52459;DHT22;38372;52.902;6.024;2023-04-24T07:26:51;9.40;99.90
52459;DHT22;38372;52.902;6.024;2023-04-24T07:29:17;9.40;99.90
52459;DHT22;38372;52.902;6.024;2023-04-24T07:31:43;9.40;99.90
52459;DHT22;38372;52.902;6.024;2023-04-24T07:34:09;9.40;99.90
52459;DHT22;38372;52.902;6.024;2023-04-24T07:36:35;9.30;99.90
52459;DHT22;38372;52.902;6.024;2023-04-24T07:39:01;9.20;99.90
52459;DHT22;38372;52.902;6.024;2023-04-24T07:41:27;9.30;99.90
52459;DHT22;38372;52.902;6.024;2023-04-24T07:43:53;9.30;99.90
52459;DHT22;38372;52.902;6.024;2023-04-24T07:46:20;9.20;99.90
52459;DHT22;38372;52.902;6.024;2023-04-24T07:48:46;9.20;99.90
52459;DHT22;38372;52.902;6.024;2023-04-24T07:51:14;9.20;99.90
52459;DHT22;38372;52.902;6.024;2023-04-24T07:53:40;9.20;99.90
52459;DHT22;38372;52.902;6.024;2023-04-24T07:56:06;9.20;99.90
52459;DHT22;38372;52.902;6.024;2023-04-24T07:58:32;9.20;99.90
52459;DHT22;38372;52.902;6.024;2023-04-24T08:00:58;9.20;99.90
52459;DHT22;38372;52.902;6.024;2023-04-24T08:03:24;9.10;99.90
52459;DHT22;38372;52.902;6.024;2023-04-24T08:05:50;9.10;99.90
52459;DHT22;38372;52.902;6.024;2023-04-24T08:08:16;9.10;99.90
52459;DHT22;38372;52.902;6.024;2023-04-24T08:10:43;9.00;99.90
52459;DHT22;38372;52.902;6.024;2023-04-24T08:13:08;9.00;99.90
52459;DHT22;38372;52.902;6.024;2023-04-24T08:15:34;9.00;99.90
52459;DHT22;38372;52.902;6.024;2023-04-24T08:18:00;9.00;99.90
52459;DHT22;38372;52.902;6.024;2023-04-24T08:20:26;9.00;99.90
52459;DHT22;38372;52.902;6.024;2023-04-24T08:22:52;9.00;99.90
52459;DHT22;38372;52.902;6.024;2023-04-24T08:25:18;9.00;99.90
52459;DHT22;38372;52.902;6.024;2023-04-24T08:27:44;9.10;99.90
52459;DHT22;38372;52.902;6.024;2023-04-24T08:30:10;9.10;99.90
52459;DHT22;38372;52.902;6.024;2023-04-24T08:32:37;9.20;99.90
52459;DHT22;38372;52.902;6.024;2023-04-24T08:35:03;9.20;99.90
52459;DHT22;38372;52.902;6.024;2023-04-24T08:37:29;9.20;99.90
52459;DHT22;38372;52.902;6.024;2023-04-24T08:39:54;9.30;99.90
52459;DHT22;38372;52.902;6.024;2023-04-24T08:42:21;9.30;99.90
52459;DHT22;38372;52.902;6.024;2023-04-24T08:44:48;9.30;99.90
52459;DHT22;38372;52.902;6.024;2023-04-24T08:47:15;9.30;99.90
52459;DHT22;38372;52.902;6.024;2023-04-24T08:49:41;9.30;99.90
52459;DHT22;38372;52.902;6.024;2023-04-24T08:52:08;9.30;99.90
52459;DHT22;38372;52.902;6.024;2023-04-24T08:54:35;9.30;99.90
52459;DHT22;38372;52.902;6.024;2023-04-24T08:57:02;9.30;99.90
52459;DHT22;38372;52.902;6.024;2023-04-24T08:59:29;9.30;99.90
52459;DHT22;38372;52.902;6.024;2023-04-24T09:01:56;9.40;99.90
52459;DHT22;38372;52.902;6.024;2023-04-24T09:04:23;9.40;99.90
52459;DHT22;38372;52.902;6.024;2023-04-24T09:06:51;9.50;99.90
52459;DHT22;38372;52.902;6.024;2023-04-24T09:09:17;9.50;99.90
52459;DHT22;38372;52.902;6.024;2023-04-24T09:11:44;9.60;99.90
52459;DHT22;38372;52.902;6.024;2023-04-24T09:14:10;9.70;99.90
52459;DHT22;38372;52.902;6.024;2023-04-24T09:16:36;9.80;99.90
52459;DHT22;38372;52.902;6.024;2023-04-24T09:19:02;9.90;99.90
52459;DHT22;38372;52.902;6.024;2023-04-24T09:21:32;9.90;99.90
52459;DHT22;38372;52.902;6.024;2023-04-24T09:24:05;9.90;99.90
52459;DHT22;38372;52.902;6.024;2023-04-24T09:26:33;10.00;99.90
52459;DHT22;38372;52.902;6.024;2023-04-24T09:29:00;10.00;99.90
52459;DHT22;38372;52.902;6.024;2023-04-24T09:31:28;10.00;99.90
52459;DHT22;38372;52.902;6.024;2023-04-24T09:34:00;9.90;99.90
52459;DHT22;38372;52.902;6.024;2023-04-24T09:39:01;9.80;99.90
52459;DHT22;38372;52.902;6.024;2023-04-24T09:41:28;9.70;99.90
52459;DHT22;38372;52.902;6.024;2023-04-24T09:43:58;9.60;99.90
52459;DHT22;38372;52.902;6.024;2023-04-24T09:46:30;9.50;99.90
52459;DHT22;38372;52.902;6.024;2023-04-24T09:49:08;9.40;99.90
52459;DHT22;38372;52.902;6.024;2023-04-24T09:51:36;9.40;99.90
52459;DHT22;38372;52.902;6.024;2023-04-24T09:54:04;9.40;99.90
52459;DHT22;38372;52.902;6.024;2023-04-24T09:56:36;9.30;99.90
52459;DHT22;38372;52.902;6.024;2023-04-24T09:59:06;9.40;99.90
52459;DHT22;38372;52.902;6.024;2023-04-24T10:01:32;9.40;99.90
52459;DHT22;38372;52.902;6.024;2023-04-24T10:03:58;9.40;99.90
52459;DHT22;38372;52.902;6.024;2023-04-24T10:06:32;9.40;99.90
52459;DHT22;38372;52.902;6.024;2023-04-24T10:08:58;9.40;99.90
52459;DHT22;38372;52.902;6.024;2023-04-24T10:11:26;9.50;99.90
52459;DHT22;38372;52.902;6.024;2023-04-24T10:13:53;9.50;99.90
52459;DHT22;38372;52.902;6.024;2023-04-24T10:16:21;9.60;99.90
52459;DHT22;38372;52.902;6.024;2023-04-24T10:18:48;9.60;99.90
52459;DHT22;38372;52.902;6.024;2023-04-24T10:21:15;9.70;99.90
52459;DHT22;38372;52.902;6.024;2023-04-24T10:23:42;9.80;99.90
52459;DHT22;38372;52.902;6.024;2023-04-24T10:26:09;9.80;99.90
52459;DHT22;38372;52.902;6.024;2023-04-24T10:28:36;9.80;99.90
52459;DHT22;38372;52.902;6.024;2023-04-24T10:31:02;9.70;99.90
52459;DHT22;38372;52.902;6.024;2023-04-24T10:33:30;9.70;99.90
52459;DHT22;38372;52.902;6.024;2023-04-24T10:35:57;9.60;99.90
52459;DHT22;38372;52.902;6.024;2023-04-24T10:38:25;9.50;99.90
52459;DHT22;38372;52.902;6.024;2023-04-24T10:41:06;9.50;99.90
52459;DHT22;38372;52.902;6.024;2023-04-24T10:43:33;9.50;99.90
52459;DHT22;38372;52.902;6.024;2023-04-24T10:46:04;9.40;99.90
52459;DHT22;38372;52.902;6.024;2023-04-24T10:48:31;9.50;99.90
52459;DHT22;38372;52.902;6.024;2023-04-24T10:50:58;9.50;99.90
52459;DHT22;38372;52.902;6.024;2023-04-24T10:53:27;9.50;99.90
52459;DHT22;38372;52.902;6.024;2023-04-24T10:56:06;9.60;99.90
52459;DHT22;38372;52.902;6.024;2023-04-24T10:58:59;9.70;99.90
52459;DHT22;38372;52.902;6.024;2023-04-24T11:01:29;9.80;99.90
52459;DHT22;38372;52.902;6.024;2023-04-24T11:03:58;10.00;99.90
52459;DHT22;38372;52.902;6.024;2023-04-24T11:06:37;10.20;99.90
52459;DHT22;38372;52.902;6.024;2023-04-24T11:09:10;10.30;99.90
52459;DHT22;38372;52.902;6.024;2023-04-24T11:11:45;10.30;99.90
52459;DHT22;38372;52.902;6.024;2023-04-24T11:14:10;10.20;99.90
52459;DHT22;38372;52.902;6.024;2023-04-24T11:16:51;10.10;99.90
52459;DHT22;38372;52.902;6.024;2023-04-24T11:19:18;9.90;99.90
52459;DHT22;38372;52.902;6.024;2023-04-24T11:22:04;9.80;99.90
52459;DHT22;38372;52.902;6.024;2023-04-24T11:27:21;9.60;99.90
52459;DHT22;38372;52.902;6.024;2023-04-24T11:30:00;9.60;99.90
52459;DHT22;38372;52.902;6.024;2023-04-24T11:35:05;9.80;99.90
52459;DHT22;38372;52.902;6.024;2023-04-24T11:37:46;9.90;99.90
52459;DHT22;38372;52.902;6.024;2023-04-24T11:40:15;10.00;99.90
52459;DHT22;38372;52.902;6.024;2023-04-24T11:42:45;10.10;99.90
52459;DHT22;38372;52.902;6.024;2023-04-24T11:47:38;10.00;99.90
52459;DHT22;38372;52.902;6.024;2023-04-24T11:50:07;10.00;99.90
52459;DHT22;38372;52.902;6.024;2023-04-24T11:52:36;10.00;99.90
52459;DHT22;38372;52.902;6.024;2023-04-24T11:55:03;10.00;99.90
52459;DHT22;38372;52.902;6.024;2023-04-24T11:57:29;10.00;99.90
52459;DHT22;38372;52.902;6.024;2023-04-24T11:59:59;10.10;99.90
52459;DHT22;38372;52.902;6.024;2023-04-24T12:02:26;10.10;99.90
52459;DHT22;38372;52.902;6.024;2023-04-24T12:04:53;10.20;99.90
52459;DHT22;38372;52.902;6.024;2023-04-24T12:07:19;10.30;99.90
52459;DHT22;38372;52.902;6.024;2023-04-24T12:12:15;10.70;99.90
52459;DHT22;38372;52.902;6.024;2023-04-24T12:15:15;10.70;99.90
52459;DHT22;38372;52.902;6.024;2023-04-24T12:17:35;10.70;99.90
52459;DHT22;38372;52.902;6.024;2023-04-24T12:20:06;10.60;99.90
52459;DHT22;38372;52.902;6.024;2023-04-24T12:22:52;10.40;99.90
52459;DHT22;38372;52.902;6.024;2023-04-24T12:25:24;10.20;99.90
52459;DHT22;38372;52.902;6.024;2023-04-24T12:27:55;9.90;99.90
52459;DHT22;38372;52.902;6.024;2023-04-24T12:30:41;9.70;99.90
52459;DHT22;38372;52.902;6.024;2023-04-24T12:33:07;9.60;99.90
52459;DHT22;38372;52.902;6.024;2023-04-24T12:35:33;9.50;99.90
52459;DHT22;38372;52.902;6.024;2023-04-24T12:38:11;9.50;99.90
52459;DHT22;38372;52.902;6.024;2023-04-24T12:40:38;9.70;99.90
52459;DHT22;38372;52.902;6.024;2023-04-24T12:43:24;9.90;99.90
52459;DHT22;38372;52.902;6.024;2023-04-24T12:45:50;10.00;99.90
52459;DHT22;38372;52.902;6.024;2023-04-24T12:48:16;10.10;99.90
52459;DHT22;38372;52.902;6.024;2023-04-24T12:50:42;10.20;99.90
52459;DHT22;38372;52.902;6.024;2023-04-24T12:53:08;10.30;99.90
52459;DHT22;38372;52.902;6.024;2023-04-24T12:55:35;10.40;99.90
52459;DHT22;38372;52.902;6.024;2023-04-24T12:58:00;10.40;99.90
52459;DHT22;38372;52.902;6.024;2023-04-24T13:00:27;10.30;99.90
52459;DHT22;38372;52.902;6.024;2023-04-24T13:02:53;10.20;99.90
52459;DHT22;38372;52.902;6.024;2023-04-24T13:05:20;10.10;99.90
52459;DHT22;38372;52.902;6.024;2023-04-24T13:07:46;9.90;99.90
52459;DHT22;38372;52.902;6.024;2023-04-24T13:10:12;9.70;99.90
52459;DHT22;38372;52.902;6.024;2023-04-24T13:12:39;9.50;99.90
52459;DHT22;38372;52.902;6.024;2023-04-24T13:15:06;9.30;99.90
52459;DHT22;38372;52.902;6.024;2023-04-24T13:17:32;9.20;99.90
52459;DHT22;38372;52.902;6.024;2023-04-24T13:19:59;9.20;99.90
52459;DHT22;38372;52.902;6.024;2023-04-24T13:22:25;9.10;99.90
52459;DHT22;38372;52.902;6.024;2023-04-24T13:24:50;9.20;99.90
52459;DHT22;38372;52.902;6.024;2023-04-24T13:27:17;9.20;99.90
52459;DHT22;38372;52.902;6.024;2023-04-24T13:29:43;9.30;99.90
52459;DHT22;38372;52.902;6.024;2023-04-24T13:32:09;9.40;99.90
52459;DHT22;38372;52.902;6.024;2023-04-24T13:34:35;9.60;99.90
52459;DHT22;38372;52.902;6.024;2023-04-24T13:37:02;9.60;99.90
52459;DHT22;38372;52.902;6.024;2023-04-24T13:39:29;9.70;99.90
52459;DHT22;38372;52.902;6.024;2023-04-24T13:41:55;9.80;99.90
52459;DHT22;38372;52.902;6.024;2023-04-24T13:44:21;9.80;99.90
52459;DHT22;38372;52.902;6.024;2023-04-24T13:46:50;9.90;99.90
52459;DHT22;38372;52.902;6.024;2023-04-24T13:49:17;9.90;99.90
52459;DHT22;38372;52.902;6.024;2023-04-24T13:51:43;10.00;99.90
52459;DHT22;38372;52.902;6.024;2023-04-24T13:54:09;10.00;99.90
52459;DHT22;38372;52.902;6.024;2023-04-24T13:56:35;10.00;99.90
52459;DHT22;38372;52.902;6.024;2023-04-24T13:59:01;9.90;99.90
52459;DHT22;38372;52.902;6.024;2023-04-24T14:01:27;9.90;99.90
52459;DHT22;38372;52.902;6.024;2023-04-24T14:03:54;9.80;99.90
52459;DHT22;38372;52.902;6.024;2023-04-24T14:06:20;9.70;99.90
52459;DHT22;38372;52.902;6.024;2023-04-24T14:08:47;9.70;99.90
52459;DHT22;38372;52.902;6.024;2023-04-24T14:11:13;9.70;99.90
52459;DHT22;38372;52.902;6.024;2023-04-24T14:13:41;9.70;99.90
52459;DHT22;38372;52.902;6.024;2023-04-24T14:16:07;9.70;99.90
52459;DHT22;38372;52.902;6.024;2023-04-24T14:18:33;9.80;99.90
52459;DHT22;38372;52.902;6.024;2023-04-24T14:20:59;9.90;99.90
52459;DHT22;38372;52.902;6.024;2023-04-24T14:23:26;10.00;99.90
52459;DHT22;38372;52.902;6.024;2023-04-24T14:25:52;10.00;99.90
52459;DHT22;38372;52.902;6.024;2023-04-24T14:28:21;10.00;99.90
52459;DHT22;38372;52.902;6.024;2023-04-24T14:30:47;10.00;99.90
52459;DHT22;38372;52.902;6.024;2023-04-24T14:33:14;10.00;99.90
52459;DHT22;38372;52.902;6.024;2023-04-24T14:35:40;9.90;99.90
52459;DHT22;38372;52.902;6.024;2023-04-24T14:38:07;9.80;99.90
52459;DHT22;38372;52.902;6.024;2023-04-24T14:40:33;9.80;99.90
52459;DHT22;38372;52.902;6.024;2023-04-24T14:42:59;9.80;99.90
52459;DHT22;38372;52.902;6.024;2023-04-24T14:45:28;9.80;99.90
52459;DHT22;38372;52.902;6.024;2023-04-24T14:47:55;9.80;99.90
52459;DHT22;38372;52.902;6.024;2023-04-24T14:50:21;9.90;99.90
52459;DHT22;38372;52.902;6.024;2023-04-24T14:52:47;10.00;99.90
52459;DHT22;38372;52.902;6.024;2023-04-24T14:55:13;10.00;99.90
52459;DHT22;38372;52.902;6.024;2023-04-24T14:57:40;10.00;99.90
52459;DHT22;38372;52.902;6.024;2023-04-24T15:00:07;9.90;99.90
52459;DHT22;38372;52.902;6.024;2023-04-24T15:02:39;9.80;99.90
52459;DHT22;38372;52.902;6.024;2023-04-24T15:05:07;9.60;99.90
52459;DHT22;38372;52.902;6.024;2023-04-24T15:07:34;9.50;99.90
52459;DHT22;38372;52.902;6.024;2023-04-24T15:10:01;9.50;99.90
52459;DHT22;38372;52.902;6.024;2023-04-24T15:12:27;9.50;99.90
52459;DHT22;38372;52.902;6.024;2023-04-24T15:14:54;9.50;99.90
52459;DHT22;38372;52.902;6.024;2023-04-24T15:17:20;9.40;99.90
52459;DHT22;38372;52.902;6.024;2023-04-24T15:19:46;9.40;99.90
52459;DHT22;38372;52.902;6.024;2023-04-24T15:22:11;9.40;99.90
52459;DHT22;38372;52.902;6.024;2023-04-24T15:24:37;9.30;99.90
52459;DHT22;38372;52.902;6.024;2023-04-24T15:27:03;9.40;99.90
52459;DHT22;38372;52.902;6.024;2023-04-24T15:29:29;9.40;99.90
52459;DHT22;38372;52.902;6.024;2023-04-24T15:31:55;9.50;99.90
52459;DHT22;38372;52.902;6.024;2023-04-24T15:34:21;9.50;99.90
52459;DHT22;38372;52.902;6.024;2023-04-24T15:36:46;9.60;99.90
52459;DHT22;38372;52.902;6.024;2023-04-24T15:39:12;9.50;99.90
52459;DHT22;38372;52.902;6.024;2023-04-24T15:41:38;9.50;99.90
52459;DHT22;38372;52.902;6.024;2023-04-24T15:44:04;9.40;99.90
52459;DHT22;38372;52.902;6.024;2023-04-24T15:46:29;9.40;99.90
52459;DHT22;38372;52.902;6.024;2023-04-24T15:48:55;9.30;99.90
52459;DHT22;38372;52.902;6.024;2023-04-24T15:51:21;9.30;99.90